Betsy Layne, Kentucky
Current Conditions -  °F | °C
As of 1:55 AM on Monday 24 Nov 2014 (Local Time) from KPBX Reporting Station
Overcast Overcast  
Wind Chill: 62°   Ceiling: 3600
Heat Index: 62°   Visibility: 10mi
Dew Point: 51°   Wind: 10mph
Humidity: 69%   Direction: 190°S
Pressure: 29.52"   Gusts: 20mph
Location:  37.55°N, 82.63°W
Report Text: KPBX 240655Z AUTO 19009G17KT 160V220 10SM BKN036 OVC044 17/11 A2952 RMK AO2 T01650107
Loading
Personal Weather Stations






























Interactive Weather Map New forecast layout! Learn more

10-Day Weather Forecast

Advertisements
Track Severe Weather on mobile